Chester, MT (59522)

8:32 PM MST on February 23, 2017 (GMT -0700)
Liberty County Courthouse | | Change Station

Elev 3165 ft 48.51 °N, 110.96 °W | Updated 31 seconds ago

Overcast
Overcast
24.8 °F
Feels Like 20 °F
N
4.0
Wind Variable Wind from East
Gusts 8.0 mph

Today
High -- | Low -- °F
--% Chance of Precip.
Yesterday
High -- | Low -- °F
Precip. -- in
Pressure 30.05 in
Visibility 1.8 miles
Clouds Mostly Cloudy 2000 ft
Mostly Cloudy 2900 ft
Overcast 4300 ft
Windchill 20 °F
Dew Point 20 °F
Humidity 81%
Rainfall 0.00 in
Snow Depth Not available.
7:16 AM 5:58 PM
Waning Crescent, 7% visible
SPECI KHVR 240318Z AUTO 08008KT 1 3/4SM -SN BR BKN020 BKN029 OVC043 M03/M04 A3005 RMK AO2 P0000 T10331044
Pressure 30.05 in
Visibility 1.8 miles
Clouds Mostly Cloudy 2000 ft
Mostly Cloudy 2900 ft
Overcast 4300 ft
Windchill 20 °F
Dew Point 20 °F
Humidity 81%
Rainfall 0.00 in
Snow Depth Not available.
7:16 AM 5:58 PM
Waning Crescent, 7% visible
SPECI KHVR 240318Z AUTO 08008KT 1 3/4SM -SN BR BKN020 BKN029 OVC043 M03/M04 A3005 RMK AO2 P0000 T10331044

Get Your Daily Forecast Email!

Thanks for signing up!

Be on the lookout for a verification email in your inbox.

You'll start receiving the daily forecast at 8 AM.

×

10-Day Weather Forecast

Almanac

Astronomy

Feb. 23, 2017 Rise Set
Actual Time
Civil Twilight
Nautical Twilight
Astronomical Twilight
Moon
Length of Visible Light
Length of Day
Tomorrow will be .
, % of the Moon is Illuminated

Today's Extremes

State Highs State Lows

Community

WunderPhotos

Upload Photos

1,962,540 photos uploaded!

WunderBlog® & News

Nearby

Air Quality

  Air Quality AQ Index Pollutant
Not available.

Snow Depth

Station Depth Elevation

Earthquake Activity

City Distance Mag. Time & Date
Minimum magnitude displayed is 2.5.

Coastal Water Temperatures

Place Temperature

Stations

Nearby Weather Stations

Station Location Temp. Windchill Dew Point Humidity Wind Precip. Elev Updated Type
                   

Watches & Warnings

There are currently no watches in effect.